Time;durP1;ratioP1;P1;durP2;ratioP2;P2;SDS_P1;SDS_P2;PMS_P1;PMS_P2;Temp;Humidity;BMP_temperature;BMP_pressure;BME280_temperature;BME280_humidity;BME280_pressure;Samples;Min_cycle;Max_cycle;Signal;HPM_P1;HPM_P2
2021/07/04 00:00:23;;;;;;;1.50;0.90;;;20.40;98.20;;;;;;5004411;28;20993;-78
2021/07/04 00:02:51;;;;;;;1.50;0.90;;;20.40;98.20;;;;;;4994759;28;20789;-79
2021/07/04 00:05:19;;;;;;;1.50;0.90;;;20.30;98.20;;;;;;5005339;28;20491;-79
2021/07/04 00:07:48;;;;;;;1.50;1.00;;;20.30;98.20;;;;;;4989944;28;20481;-79
2021/07/04 00:10:19;;;;;;;1.50;0.90;;;20.30;98.20;;;;;;5010593;28;20483;-78
2021/07/04 00:12:46;;;;;;;1.50;0.90;;;20.40;98.20;;;;;;4994389;28;20486;-78
2021/07/04 00:15:15;;;;;;;1.50;0.90;;;20.40;98.20;;;;;;5006040;28;20471;-78
2021/07/04 00:17:43;;;;;;;1.50;0.90;;;20.40;98.20;;;;;;4993338;28;20622;-79
2021/07/04 00:20:13;;;;;;;1.50;1.00;;;20.40;98.20;;;;;;5009323;28;20472;-79
2021/07/04 00:22:41;;;;;;;1.50;0.93;;;20.40;98.20;;;;;;4997803;28;20480;-79
2021/07/04 00:25:12;;;;;;;1.50;1.00;;;20.40;98.20;;;;;;5005156;28;20469;-77
2021/07/04 00:27:39;;;;;;;1.50;0.90;;;20.40;98.20;;;;;;4998249;28;21037;-79
2021/07/04 00:30:08;;;;;;;1.50;0.90;;;20.30;98.20;;;;;;5008331;28;20488;-79
2021/07/04 00:32:34;;;;;;;1.50;0.90;;;20.30;98.20;;;;;;4994897;28;20492;-78
2021/07/04 00:35:01;;;;;;;1.50;0.90;;;20.30;98.20;;;;;;5003685;28;20464;-79
2021/07/04 00:37:28;;;;;;;1.50;1.00;;;20.20;98.20;;;;;;4992018;28;20485;-79
2021/07/04 00:39:55;;;;;;;1.50;0.90;;;20.20;98.20;;;;;;5003472;28;20472;-78
2021/07/04 00:42:23;;;;;;;1.50;0.90;;;20.10;98.20;;;;;;4995853;28;20483;-78
2021/07/04 00:44:51;;;;;;;1.50;1.00;;;20.10;98.20;;;;;;5007838;28;20465;-78
2021/07/04 00:47:17;;;;;;;1.50;0.90;;;20.00;98.20;;;;;;4988405;28;20571;-80
2021/07/04 00:49:44;;;;;;;1.50;0.90;;;20.00;98.20;;;;;;5006328;28;20509;-79
2021/07/04 00:52:11;;;;;;;1.50;0.97;;;19.90;98.20;;;;;;4989184;28;20481;-78
2021/07/04 00:54:38;;;;;;;1.50;0.90;;;19.90;98.20;;;;;;5004223;28;20954;-79
2021/07/04 00:57:05;;;;;;;1.50;1.00;;;19.90;98.20;;;;;;4997759;28;20484;-78
2021/07/04 00:59:34;;;;;;;1.50;1.00;;;19.90;98.20;;;;;;5007485;28;20472;-79
2021/07/04 01:02:00;;;;;;;1.50;1.00;;;19.90;98.20;;;;;;4994509;28;20473;-80
2021/07/04 01:04:27;;;;;;;1.50;0.90;;;19.90;98.20;;;;;;5005839;28;20796;-78
2021/07/04 01:06:55;;;;;;;1.50;0.90;;;19.90;98.20;;;;;;4992736;28;20480;-78
2021/07/04 01:09:21;;;;;;;1.50;1.00;;;20.00;98.20;;;;;;5003120;28;20496;-79
2021/07/04 01:11:49;;;;;;;1.50;1.00;;;20.00;98.20;;;;;;4994858;28;20495;-79
2021/07/04 01:14:17;;;;;;;1.50;1.00;;;20.00;98.20;;;;;;5007537;28;20461;-80
2021/07/04 01:16:45;;;;;;;1.50;0.90;;;20.00;98.20;;;;;;4994080;28;20868;-80
2021/07/04 01:19:16;;;;;;;1.50;0.90;;;20.00;98.20;;;;;;5002300;28;20481;-79
2021/07/04 01:21:44;;;;;;;1.50;0.90;;;20.00;98.20;;;;;;4995203;28;20473;-78
2021/07/04 01:24:13;;;;;;;1.50;1.00;;;20.00;98.20;;;;;;5002671;28;20464;-78
2021/07/04 01:26:40;;;;;;;1.50;0.90;;;20.00;98.20;;;;;;4991509;28;20473;-79
2021/07/04 01:29:08;;;;;;;1.50;1.00;;;19.90;98.20;;;;;;5004544;28;20493;-78
2021/07/04 01:31:34;;;;;;;1.50;0.90;;;19.90;98.20;;;;;;4992096;28;20480;-79
2021/07/04 01:34:01;;;;;;;1.50;0.90;;;19.90;98.20;;;;;;4998662;28;20904;-77
2021/07/04 01:36:28;;;;;;;1.50;0.90;;;19.90;98.20;;;;;;4999412;28;20476;-80
2021/07/04 01:38:55;;;;;;;1.50;0.90;;;19.90;98.20;;;;;;5013329;28;20467;-80
2021/07/04 01:41:23;;;;;;;1.50;0.90;;;19.90;98.20;;;;;;5000708;28;20479;-79
2021/07/04 01:43:50;;;;;;;1.50;0.90;;;19.90;98.20;;;;;;5007660;28;20456;-80
2021/07/04 01:46:17;;;;;;;1.50;0.90;;;19.90;98.20;;;;;;5001502;28;20546;-78
2021/07/04 01:48:44;;;;;;;1.50;1.00;;;19.90;98.20;;;;;;5007282;28;20492;-78
2021/07/04 01:51:11;;;;;;;1.50;1.00;;;19.90;98.20;;;;;;4995709;28;20979;-78
2021/07/04 01:53:38;;;;;;;1.50;1.00;;;19.90;98.20;;;;;;5007625;28;20465;-78
2021/07/04 01:56:07;;;;;;;1.50;1.00;;;19.90;98.20;;;;;;5002569;28;21108;-79
2021/07/04 01:58:35;;;;;;;1.60;1.30;;;19.90;98.20;;;;;;4996529;28;20498;-79
2021/07/04 02:01:02;;;;;;;1.50;0.90;;;20.00;98.20;;;;;;4997966;28;20452;-78
2021/07/04 02:03:29;;;;;;;1.50;1.00;;;20.00;98.20;;;;;;5007776;28;20476;-79
2021/07/04 02:05:56;;;;;;;1.50;0.90;;;20.00;98.20;;;;;;4998897;28;20838;-79
2021/07/04 02:08:23;;;;;;;1.50;0.90;;;20.00;98.20;;;;;;5006906;28;20484;-78
2021/07/04 02:10:50;;;;;;;1.50;1.00;;;20.00;98.20;;;;;;4996707;28;20460;-78
2021/07/04 02:13:17;;;;;;;1.50;0.90;;;19.90;98.20;;;;;;5010440;28;20460;-81
2021/07/04 02:15:45;;;;;;;1.50;1.00;;;19.90;98.20;;;;;;5009454;28;20466;-77
2021/07/04 02:18:15;;;;;;;1.50;0.97;;;19.90;98.20;;;;;;4975704;28;20859;-80
2021/07/04 02:20:43;;;;;;;1.50;0.97;;;19.90;98.20;;;;;;5002390;28;20471;-79
2021/07/04 02:23:14;;;;;;;1.50;0.90;;;19.80;98.20;;;;;;4998289;28;20475;-78
2021/07/04 02:25:43;;;;;;;1.50;0.90;;;19.80;98.20;;;;;;5012672;28;20466;-78
2021/07/04 02:28:12;;;;;;;1.50;1.00;;;19.80;98.20;;;;;;4995277;28;20491;-79
2021/07/04 02:30:39;;;;;;;1.50;0.90;;;19.80;98.20;;;;;;5009735;28;20496;-78
2021/07/04 02:33:09;;;;;;;1.53;1.00;;;19.80;98.20;;;;;;5000039;28;20480;-78
2021/07/04 02:35:38;;;;;;;1.50;1.00;;;19.80;98.20;;;;;;5011351;28;20474;-79
2021/07/04 02:38:06;;;;;;;1.50;1.00;;;19.70;98.20;;;;;;4998299;28;20476;-78
2021/07/04 02:40:33;;;;;;;1.50;0.97;;;19.70;98.20;;;;;;5009989;28;20460;-79
2021/07/04 02:43:01;;;;;;;1.90;1.00;;;19.70;98.20;;;;;;5000904;28;20480;-78
2021/07/04 02:45:28;;;;;;;1.50;0.90;;;19.70;98.20;;;;;;5010613;28;20464;-78
2021/07/04 02:47:55;;;;;;;1.50;0.90;;;19.70;98.20;;;;;;4997227;28;20544;-79
2021/07/04 02:50:23;;;;;;;1.60;1.10;;;19.70;98.20;;;;;;5012582;28;20488;-79
2021/07/04 02:52:51;;;;;;;1.50;1.00;;;19.70;98.20;;;;;;4995137;28;20484;-79
2021/07/04 02:55:19;;;;;;;1.50;0.97;;;19.70;98.20;;;;;;5010630;28;20460;-79
2021/07/04 02:57:46;;;;;;;1.50;1.00;;;19.70;98.20;;;;;;4996674;28;20866;-78
2021/07/04 03:00:16;;;;;;;1.60;1.30;;;19.60;98.20;;;;;;5010173;28;20478;-78
2021/07/04 03:02:43;;;;;;;1.50;0.90;;;19.60;98.20;;;;;;4998383;28;20629;-79
2021/07/04 03:05:11;;;;;;;1.50;0.90;;;19.60;98.20;;;;;;5013232;28;20456;-78
2021/07/04 03:07:40;;;;;;;1.53;1.00;;;19.60;98.20;;;;;;4994272;28;20481;-79
2021/07/04 03:10:09;;;;;;;1.50;0.93;;;19.50;98.20;;;;;;5007646;28;20785;-79
2021/07/04 03:12:36;;;;;;;1.50;0.90;;;19.50;98.20;;;;;;5000127;28;20480;-79
2021/07/04 03:15:04;;;;;;;1.50;1.00;;;19.40;98.20;;;;;;5010543;28;20479;-78
2021/07/04 03:17:31;;;;;;;1.57;0.90;;;19.40;98.20;;;;;;4997540;28;21035;-79
2021/07/04 03:19:57;;;;;;;1.50;1.00;;;19.40;98.20;;;;;;5013226;28;20952;-79
2021/07/04 03:22:24;;;;;;;1.50;1.00;;;19.40;98.20;;;;;;4998801;28;20485;-78
2021/07/04 03:24:53;;;;;;;1.60;1.13;;;19.40;98.20;;;;;;5007933;28;20473;-79
2021/07/04 03:27:20;;;;;;;1.50;1.00;;;19.40;98.20;;;;;;5001038;28;20480;-79
2021/07/04 03:29:46;;;;;;;1.50;0.90;;;19.40;98.20;;;;;;5010183;28;20492;-79
2021/07/04 03:32:13;;;;;;;1.50;0.90;;;19.40;98.20;;;;;;4996525;28;20494;-77
2021/07/04 03:34:40;;;;;;;1.53;1.00;;;19.40;98.20;;;;;;5012284;28;20464;-79
2021/07/04 03:37:07;;;;;;;1.53;1.00;;;19.40;98.20;;;;;;4999490;28;20543;-79
2021/07/04 03:39:33;;;;;;;1.50;1.00;;;19.40;98.20;;;;;;5008330;28;20498;-79
2021/07/04 03:42:02;;;;;;;1.53;0.90;;;19.40;98.20;;;;;;4994012;28;20476;-79
2021/07/04 03:44:28;;;;;;;1.50;0.90;;;19.40;98.20;;;;;;5004489;28;20959;-78
2021/07/04 03:46:55;;;;;;;1.50;1.00;;;19.40;98.20;;;;;;4998734;28;20488;-77
2021/07/04 03:49:22;;;;;;;1.50;0.90;;;19.40;98.20;;;;;;5004588;28;20506;-78
2021/07/04 03:51:49;;;;;;;1.50;1.00;;;19.40;98.20;;;;;;4996145;28;20490;-78
2021/07/04 03:54:15;;;;;;;1.50;0.93;;;19.40;98.20;;;;;;5004841;28;20464;-78
2021/07/04 03:56:42;;;;;;;1.50;1.00;;;19.40;98.20;;;;;;4998138;28;21025;-77
2021/07/04 03:59:10;;;;;;;1.50;0.90;;;19.40;98.20;;;;;;5003356;28;20496;-77
2021/07/04 04:01:37;;;;;;;1.50;0.90;;;19.40;98.20;;;;;;4992991;28;20497;-79
2021/07/04 04:04:04;;;;;;;1.50;0.90;;;19.40;98.20;;;;;;5005303;28;20460;-79
2021/07/04 04:06:30;;;;;;;1.50;0.90;;;19.40;98.20;;;;;;5003321;28;20902;-80
2021/07/04 04:08:57;;;;;;;1.50;1.00;;;19.40;98.20;;;;;;5007691;28;20484;-79
2021/07/04 04:11:24;;;;;;;1.50;0.90;;;19.40;98.20;;;;;;4999268;28;20878;-79
2021/07/04 04:13:50;;;;;;;1.50;0.90;;;19.40;98.20;;;;;;5008939;28;20475;-79
2021/07/04 04:16:18;;;;;;;1.50;1.00;;;19.40;98.20;;;;;;5000472;28;20535;-79
2021/07/04 04:18:45;;;;;;;1.50;0.90;;;19.40;98.20;;;;;;5008504;28;20575;-79
2021/07/04 04:21:12;;;;;;;1.50;0.90;;;19.50;98.20;;;;;;4998858;28;21920;-79
2021/07/04 04:23:39;;;;;;;1.50;0.90;;;19.50;98.20;;;;;;5005630;28;20469;-78
2021/07/04 04:26:06;;;;;;;1.50;0.90;;;19.50;98.20;;;;;;5000640;28;20474;-80
2021/07/04 04:28:33;;;;;;;1.50;1.00;;;19.50;98.20;;;;;;5003890;28;20495;-79
2021/07/04 04:31:00;;;;;;;1.50;1.00;;;19.50;98.20;;;;;;4990462;28;21004;-79
2021/07/04 04:33:28;;;;;;;1.50;0.90;;;19.50;98.20;;;;;;5007606;28;20472;-78
2021/07/04 04:35:54;;;;;;;1.50;0.90;;;19.50;98.20;;;;;;5001098;28;20513;-78
2021/07/04 04:38:21;;;;;;;1.50;1.00;;;19.50;98.20;;;;;;5007766;28;20475;-79
2021/07/04 04:40:48;;;;;;;1.50;0.90;;;19.60;98.20;;;;;;4995486;28;20465;-79
2021/07/04 04:43:15;;;;;;;1.50;0.90;;;19.60;98.20;;;;;;5009669;28;20456;-79
2021/07/04 04:45:42;;;;;;;1.50;1.00;;;19.60;98.20;;;;;;5007547;28;20467;-79
2021/07/04 04:48:09;;;;;;;1.50;0.90;;;19.70;98.20;;;;;;4994634;28;20789;-79
2021/07/04 04:50:37;;;;;;;1.50;0.90;;;19.70;98.20;;;;;;5010470;28;20867;-81
2021/07/04 04:53:04;;;;;;;1.50;0.90;;;19.70;98.20;;;;;;4996799;28;20511;-79
2021/07/04 04:55:31;;;;;;;1.50;0.90;;;19.70;98.20;;;;;;5011086;28;20798;-80
2021/07/04 04:57:57;;;;;;;1.50;1.00;;;19.70;98.20;;;;;;4994549;28;20855;-78
2021/07/04 05:00:24;;;;;;;1.50;0.90;;;19.70;98.20;;;;;;5075852;22;20496;-76
2021/07/04 05:02:51;;;;;;;1.53;1.00;;;19.70;98.20;;;;;;5011618;28;20873;-75
2021/07/04 05:05:18;;;;;;;1.50;1.00;;;19.60;98.20;;;;;;5003001;28;20464;-76
2021/07/04 05:07:46;;;;;;;1.50;0.90;;;19.60;98.20;;;;;;5007930;28;20483;-76
2021/07/04 05:10:13;;;;;;;1.50;0.90;;;19.60;98.20;;;;;;5005090;28;20838;-76
2021/07/04 05:12:40;;;;;;;1.50;0.90;;;19.60;98.20;;;;;;5014853;28;20710;-76
2021/07/04 05:15:11;;;;;;;1.50;0.97;;;19.70;98.20;;;;;;5011213;28;20464;-76
2021/07/04 05:17:37;;;;;;;1.50;0.90;;;19.60;98.20;;;;;;5010936;28;20491;-76
2021/07/04 05:20:06;;;;;;;1.50;0.97;;;19.60;98.20;;;;;;5010550;28;20998;-76
2021/07/04 05:22:34;;;;;;;1.50;0.90;;;19.60;98.20;;;;;;5006440;28;20550;-76
2021/07/04 05:25:03;;;;;;;1.50;0.90;;;19.60;98.20;;;;;;5009718;28;20471;-76
2021/07/04 05:27:30;;;;;;;1.50;0.90;;;19.70;98.20;;;;;;5008371;28;20470;-76
2021/07/04 05:29:56;;;;;;;1.50;0.90;;;19.70;98.20;;;;;;5011122;28;20500;-76
2021/07/04 05:32:23;;;;;;;1.50;0.90;;;19.70;98.20;;;;;;5009204;28;20475;-75
2021/07/04 05:34:50;;;;;;;1.50;0.90;;;19.80;98.20;;;;;;5011126;28;20461;-76
2021/07/04 05:37:17;;;;;;;1.50;0.90;;;19.80;98.20;;;;;;5005881;28;20523;-76
2021/07/04 05:39:44;;;;;;;1.50;0.90;;;20.00;98.20;;;;;;5012907;28;20484;-75
2021/07/04 05:42:13;;;;;;;1.50;1.00;;;20.20;98.20;;;;;;5009000;28;20475;-76
2021/07/04 05:44:39;;;;;;;1.53;0.90;;;20.40;98.20;;;;;;5015192;28;20943;-75
2021/07/04 05:47:08;;;;;;;1.53;0.90;;;20.70;98.20;;;;;;5008332;28;20482;-76
2021/07/04 05:49:36;;;;;;;1.50;0.90;;;20.80;98.20;;;;;;5010305;28;20472;-76
2021/07/04 05:52:03;;;;;;;1.50;0.90;;;21.00;98.20;;;;;;5010037;28;20471;-77
2021/07/04 05:54:30;;;;;;;1.50;0.90;;;21.20;98.20;;;;;;5014828;28;20460;-76
2021/07/04 05:56:56;;;;;;;1.50;0.90;;;21.30;98.20;;;;;;5008101;28;20481;-76
2021/07/04 05:59:24;;;;;;;1.50;0.90;;;21.50;98.20;;;;;;5016997;28;20471;-76
2021/07/04 06:01:51;;;;;;;1.50;0.90;;;21.60;98.20;;;;;;5015143;28;20849;-76
2021/07/04 06:04:18;;;;;;;1.50;0.90;;;21.80;98.20;;;;;;5027705;28;20514;-76
2021/07/04 06:06:45;;;;;;;1.50;0.90;;;22.00;98.20;;;;;;5016343;28;20477;-76
2021/07/04 06:09:11;;;;;;;1.57;0.90;;;22.30;98.20;;;;;;5027857;28;20459;-76
2021/07/04 06:11:38;;;;;;;1.53;0.90;;;22.50;98.20;;;;;;5016517;28;20484;-76
2021/07/04 06:14:05;;;;;;;1.53;0.90;;;22.80;98.20;;;;;;5026104;28;20533;-76
2021/07/04 06:16:33;;;;;;;1.50;0.90;;;23.00;98.10;;;;;;5017510;28;21008;-76
2021/07/04 06:18:59;;;;;;;1.50;0.90;;;23.20;97.40;;;;;;5022052;28;20466;-74
2021/07/04 06:21:26;;;;;;;1.50;0.90;;;23.30;96.80;;;;;;5009424;28;20473;-76
2021/07/04 06:23:53;;;;;;;1.90;1.00;;;23.50;95.70;;;;;;5028206;28;21019;-76
2021/07/04 06:26:20;;;;;;;1.50;0.90;;;23.50;95.60;;;;;;5015829;28;20555;-75
2021/07/04 06:28:47;;;;;;;1.50;0.90;;;23.60;94.90;;;;;;5028332;28;20933;-76
2021/07/04 06:31:14;;;;;;;1.60;1.00;;;23.60;95.40;;;;;;5017002;28;21044;-76
2021/07/04 06:33:42;;;;;;;1.53;0.90;;;23.60;94.50;;;;;;5026803;28;20470;-75
2021/07/04 06:36:08;;;;;;;1.53;0.90;;;23.60;94.80;;;;;;5014875;28;20481;-76
2021/07/04 06:38:35;;;;;;;1.57;0.90;;;23.60;95.30;;;;;;5027354;28;20549;-76
2021/07/04 06:41:02;;;;;;;1.50;0.90;;;23.80;95.60;;;;;;5014391;28;20476;-76
2021/07/04 06:43:29;;;;;;;1.57;0.90;;;24.00;95.80;;;;;;5021850;28;20458;-77
2021/07/04 06:45:56;;;;;;;1.50;0.90;;;24.30;93.80;;;;;;5017113;28;20482;-77
2021/07/04 06:48:22;;;;;;;1.50;0.90;;;24.70;93.10;;;;;;5022661;28;20468;-76
2021/07/04 06:50:51;;;;;;;1.57;0.90;;;25.20;91.70;;;;;;5016849;28;20992;-76
2021/07/04 06:53:17;;;;;;;1.50;0.90;;;25.50;91.10;;;;;;5020810;28;20624;-76
2021/07/04 06:55:44;;;;;;;1.50;0.90;;;25.70;90.00;;;;;;5027713;28;20968;-76
2021/07/04 06:58:11;;;;;;;1.50;0.90;;;25.80;89.70;;;;;;4999872;28;20481;-76
2021/07/04 07:00:38;;;;;;;1.50;0.87;;;25.80;87.90;;;;;;5024568;28;20479;-77
2021/07/04 07:03:05;;;;;;;1.50;0.90;;;25.70;88.50;;;;;;5011265;28;20479;-76
2021/07/04 07:05:31;;;;;;;1.50;0.90;;;25.60;89.80;;;;;;5026029;28;20459;-76
2021/07/04 07:07:59;;;;;;;1.50;1.00;;;25.50;90.20;;;;;;5013568;28;20482;-76
2021/07/04 07:10:26;;;;;;;1.50;0.90;;;25.50;90.40;;;;;;5028341;28;20491;-76
2021/07/04 07:12:53;;;;;;;1.50;0.90;;;25.60;89.90;;;;;;5011429;28;20484;-76
2021/07/04 07:15:20;;;;;;;1.50;0.87;;;25.60;89.50;;;;;;5027465;28;20482;-77
2021/07/04 07:17:46;;;;;;;1.50;0.90;;;25.60;89.40;;;;;;5004827;28;20475;-77
2021/07/04 07:20:14;;;;;;;1.60;1.20;;;25.40;89.60;;;;;;5027624;28;20489;-78
2021/07/04 07:22:41;;;;;;;1.50;0.90;;;25.30;90.70;;;;;;5007103;28;20484;-77
2021/07/04 07:25:10;;;;;;;1.50;0.90;;;25.10;90.80;;;;;;5027253;28;20490;-76
2021/07/04 07:27:37;;;;;;;1.50;0.90;;;25.10;91.10;;;;;;5009353;28;20480;-76
2021/07/04 07:30:06;;;;;;;1.50;0.90;;;25.00;91.20;;;;;;5025859;28;20517;-76
2021/07/04 07:32:33;;;;;;;1.50;0.80;;;24.90;92.00;;;;;;5011337;28;20993;-76
2021/07/04 07:35:00;;;;;;;1.50;0.90;;;25.00;92.10;;;;;;5028402;28;20461;-76
2021/07/04 07:37:27;;;;;;;1.47;0.80;;;25.00;91.10;;;;;;5016400;28;20485;-76
2021/07/04 07:39:54;;;;;;;1.50;0.83;;;25.10;91.40;;;;;;5024848;28;20474;-76
2021/07/04 07:42:22;;;;;;;1.50;0.90;;;25.00;90.80;;;;;;5012307;28;20475;-77
2021/07/04 07:44:49;;;;;;;1.50;0.90;;;25.00;90.90;;;;;;5013815;28;20476;-76
2021/07/04 07:47:16;;;;;;;1.50;0.90;;;24.90;91.40;;;;;;5010889;28;20487;-76
2021/07/04 07:49:42;;;;;;;1.50;0.90;;;24.90;89.80;;;;;;5024345;28;20981;-78
2021/07/04 07:52:10;;;;;;;1.50;0.90;;;24.90;90.10;;;;;;5011766;28;20525;-76
2021/07/04 07:54:36;;;;;;;1.50;0.90;;;24.70;90.80;;;;;;5022283;28;20469;-76
2021/07/04 07:57:04;;;;;;;1.50;0.90;;;24.60;91.40;;;;;;5016361;28;20482;-76
2021/07/04 07:59:32;;;;;;;1.50;0.90;;;24.80;92.20;;;;;;5028320;28;20458;-75
2021/07/04 08:02:00;;;;;;;1.50;0.90;;;24.90;91.30;;;;;;5008199;28;20585;-75
2021/07/04 08:04:27;;;;;;;1.50;0.90;;;25.10;91.30;;;;;;5023863;28;20601;-75
2021/07/04 08:06:55;;;;;;;1.50;0.90;;;25.20;89.60;;;;;;5016285;28;20938;-75
2021/07/04 08:09:22;;;;;;;1.50;0.90;;;25.20;89.00;;;;;;5028219;28;20471;-76
2021/07/04 08:11:50;;;;;;;1.50;0.90;;;25.10;90.50;;;;;;5019662;28;20485;-75
2021/07/04 08:14:17;;;;;;;1.50;0.90;;;24.80;91.30;;;;;;5023550;28;20491;-75
2021/07/04 08:16:46;;;;;;;1.50;0.87;;;24.50;92.10;;;;;;5009150;28;20881;-75
2021/07/04 08:19:16;;;;;;;1.50;0.90;;;24.40;92.70;;;;;;5023973;28;20533;-75
2021/07/04 08:21:49;;;;;;;1.50;0.90;;;24.30;92.90;;;;;;5008426;28;20475;-76
2021/07/04 08:24:17;;;;;;;1.50;0.90;;;24.30;93.00;;;;;;5028568;28;20463;-75
2021/07/04 08:26:44;;;;;;;1.50;0.90;;;24.40;93.40;;;;;;5014891;28;20537;-75
2021/07/04 08:29:16;;;;;;;1.50;0.90;;;24.50;93.20;;;;;;5026782;28;20470;-75
2021/07/04 08:31:48;;;;;;;1.50;0.90;;;24.70;92.70;;;;;;5019154;28;20485;-79
2021/07/04 08:34:17;;;;;;;1.50;0.90;;;24.90;91.40;;;;;;5032857;28;20478;-77
2021/07/04 08:36:44;;;;;;;1.50;0.90;;;25.10;91.90;;;;;;5016505;28;20471;-76
2021/07/04 08:39:12;;;;;;;1.50;0.90;;;25.40;92.00;;;;;;5027054;28;20469;-76
2021/07/04 08:41:40;;;;;;;1.50;0.80;;;25.80;89.80;;;;;;5014883;28;20479;-76
2021/07/04 08:44:08;;;;;;;1.50;0.90;;;26.00;89.00;;;;;;5029479;28;21296;-76
2021/07/04 08:46:45;;;;;;;1.50;0.90;;;26.10;89.20;;;;;;5020551;28;20489;-75
2021/07/04 08:49:17;;;;;;;1.50;0.90;;;26.20;88.00;;;;;;5024936;28;20498;-76
2021/07/04 08:51:48;;;;;;;1.50;0.90;;;26.30;88.40;;;;;;5016289;28;20479;-75
2021/07/04 08:54:16;;;;;;;1.50;0.80;;;26.30;88.20;;;;;;5030161;28;20945;-77
2021/07/04 08:56:47;;;;;;;1.50;0.90;;;26.30;86.30;;;;;;5018038;28;21062;-76
2021/07/04 08:59:15;;;;;;;1.50;0.80;;;26.30;86.80;;;;;;5028012;28;20469;-77
2021/07/04 09:01:48;;;;;;;1.50;0.90;;;26.20;86.30;;;;;;5016313;28;20819;-76
2021/07/04 09:04:19;;;;;;;1.50;0.90;;;26.20;86.50;;;;;;5023592;28;20523;-77
2021/07/04 09:06:52;;;;;;;1.50;0.90;;;26.20;86.60;;;;;;5018666;28;20532;-76
2021/07/04 09:09:21;;;;;;;1.50;0.80;;;26.20;85.80;;;;;;5028758;28;20466;-76
2021/07/04 09:11:56;;;;;;;1.50;0.90;;;26.20;86.30;;;;;;5012920;28;21013;-76
2021/07/04 09:14:37;;;;;;;1.50;0.90;;;26.20;86.60;;;;;;5026231;28;20459;-76
2021/07/04 09:17:06;;;;;;;1.50;0.90;;;26.20;87.40;;;;;;5016093;28;20485;-76
2021/07/04 09:19:35;;;;;;;1.50;0.90;;;26.30;86.90;;;;;;5023941;28;20502;-78
2021/07/04 09:22:05;;;;;;;1.50;0.90;;;26.40;85.70;;;;;;5016239;28;20566;-77
2021/07/04 09:24:41;;;;;;;1.50;0.90;;;26.40;85.90;;;;;;5029765;28;20458;-77
2021/07/04 09:27:11;;;;;;;1.50;0.90;;;26.40;86.70;;;;;;5016442;28;20477;-77
2021/07/04 09:29:51;;;;;;;1.50;0.80;;;26.30;87.50;;;;;;5024785;28;20762;-77
2021/07/04 09:32:24;;;;;;;1.50;0.90;;;26.10;87.30;;;;;;5002932;28;20508;-76
2021/07/04 09:35:07;;;;;;;1.50;0.90;;;26.00;87.30;;;;;;5016051;28;20836;-76
2021/07/04 09:37:38;;;;;;;1.50;0.90;;;25.80;88.10;;;;;;5014258;28;20474;-77
2021/07/04 09:40:17;;;;;;;2.10;1.27;;;25.70;88.50;;;;;;5028108;28;20474;-78
2021/07/04 09:43:06;;;;;;;1.50;0.90;;;25.70;88.80;;;;;;5012065;28;20607;-77
2021/07/04 09:46:01;;;;;;;1.50;0.90;;;25.80;87.60;;;;;;5034324;28;20501;-77
2021/07/04 09:48:40;;;;;;;1.50;0.80;;;25.90;89.20;;;;;;4972741;28;20849;-78
2021/07/04 09:51:11;;;;;;;1.50;0.90;;;26.10;88.00;;;;;;5018754;28;20489;-78
2021/07/04 09:53:40;;;;;;;1.50;0.90;;;26.50;88.30;;;;;;5037441;28;20455;-79
2021/07/04 09:56:12;;;;;;;1.50;0.90;;;26.80;86.20;;;;;;5024993;28;20479;-78
2021/07/04 09:58:40;;;;;;;1.50;0.80;;;27.10;85.30;;;;;;5038458;28;20462;-79
2021/07/04 10:01:07;;;;;;;1.50;0.80;;;27.30;84.70;;;;;;5028308;28;20498;-79
2021/07/04 10:03:39;;;;;;;1.50;0.80;;;27.40;83.70;;;;;;5028695;28;21073;-79
2021/07/04 10:06:09;;;;;;;1.50;0.83;;;27.60;83.20;;;;;;5018512;28;20617;-78
2021/07/04 10:08:37;;;;;;;1.50;0.90;;;27.50;84.00;;;;;;5029448;28;20459;-81
2021/07/04 10:11:06;;;;;;;1.50;0.80;;;27.40;84.50;;;;;;5024283;28;20479;-80
2021/07/04 10:13:36;;;;;;;1.50;0.90;;;27.30;83.40;;;;;;5032063;28;20481;-78
2021/07/04 10:16:04;;;;;;;1.50;0.90;;;27.10;84.50;;;;;;5020183;28;21005;-77
2021/07/04 10:18:31;;;;;;;1.50;0.80;;;27.00;85.10;;;;;;5023466;28;20462;-79
2021/07/04 10:20:58;;;;;;;1.43;0.80;;;27.00;84.60;;;;;;5023509;28;20478;-78
2021/07/04 10:23:29;;;;;;;1.50;0.80;;;27.20;84.70;;;;;;5030811;28;21095;-78
2021/07/04 10:25:57;;;;;;;1.50;0.80;;;27.60;85.90;;;;;;5016176;28;20474;-77
2021/07/04 10:28:30;;;;;;;1.50;0.80;;;27.90;83.20;;;;;;5027186;28;20459;-78
2021/07/04 10:30:57;;;;;;;1.50;0.80;;;28.10;83.40;;;;;;5022188;28;20497;-79
2021/07/04 10:33:32;;;;;;;1.50;0.80;;;28.10;83.30;;;;;;5036588;28;20585;-81
2021/07/04 10:36:06;;;;;;;1.50;0.90;;;28.10;83.10;;;;;;5027250;28;20958;-80
2021/07/04 10:38:47;;;;;;;1.50;0.80;;;28.10;80.80;;;;;;5033802;28;20468;-79
2021/07/04 10:41:17;;;;;;;1.50;0.80;;;27.90;80.70;;;;;;5026938;28;20745;-80
2021/07/04 10:43:59;;;;;;;1.50;0.80;;;27.80;82.50;;;;;;5034969;28;20454;-81
2021/07/04 10:47:20;;;;;;;1.50;0.80;;;27.50;82.20;;;;;;5030067;28;20545;-79
2021/07/04 10:49:52;;;;;;;1.50;0.90;;;27.30;83.90;;;;;;5028124;28;20490;-81
2021/07/04 10:52:36;;;;;;;2.70;2.50;;;26.90;84.60;;;;;;5027535;28;20785;-78
2021/07/04 10:55:07;;;;;;;1.50;0.90;;;26.60;85.50;;;;;;5030296;28;20474;-78
2021/07/04 10:57:35;;;;;;;1.50;0.90;;;26.30;86.90;;;;;;5025361;28;20486;-78
2021/07/04 11:00:23;;;;;;;1.50;0.90;;;26.10;87.00;;;;;;5032543;28;20490;-79
2021/07/04 11:02:53;;;;;;;1.50;0.90;;;26.00;86.60;;;;;;5018905;28;20481;-78
2021/07/04 11:05:45;;;;;;;1.50;0.90;;;25.90;86.50;;;;;;5031537;23;20507;-79
2021/07/04 11:08:12;;;;;;;1.50;0.90;;;25.80;87.10;;;;;;4996078;28;20481;-79
2021/07/04 11:10:52;;;;;;;1.50;0.80;;;25.80;87.00;;;;;;5010190;28;20929;-80
2021/07/04 11:13:49;;;;;;;1.93;1.60;;;25.80;86.90;;;;;;4993540;28;20494;-81
2021/07/04 11:16:25;;;;;;;1.50;0.90;;;25.80;87.00;;;;;;4997679;28;20479;-80
2021/07/04 11:19:10;;;;;;;1.50;0.90;;;25.70;87.50;;;;;;5017366;28;20558;-81
2021/07/04 11:21:52;;;;;;;1.50;0.80;;;25.80;87.60;;;;;;4997929;28;20490;-80
2021/07/04 11:24:21;;;;;;;1.50;0.90;;;25.90;87.50;;;;;;5014215;28;20515;-82
2021/07/04 11:27:25;;;;;;;1.50;0.80;;;25.90;87.20;;;;;;5003993;28;20482;-83
2021/07/04 11:30:25;;;;;;;1.50;0.90;;;25.90;87.50;;;;;;5012403;28;20512;-81
2021/07/04 11:33:37;;;;;;;1.50;0.90;;;25.90;87.40;;;;;;5007346;28;20486;-80
2021/07/04 11:36:06;;;;;;;1.50;0.90;;;25.70;86.00;;;;;;4997397;28;20464;-80
2021/07/04 11:38:36;;;;;;;1.50;0.90;;;25.60;85.90;;;;;;5020395;28;20528;-81
2021/07/04 11:41:05;;;;;;;1.50;0.90;;;25.60;84.90;;;;;;4996139;28;20621;-79
2021/07/04 11:43:34;;;;;;;1.50;0.90;;;25.50;85.10;;;;;;5020068;28;20948;-81
2021/07/04 11:46:02;;;;;;;1.50;0.90;;;25.60;85.20;;;;;;5004934;28;20467;-82
2021/07/04 11:49:03;;;;;;;1.50;0.80;;;25.70;84.50;;;;;;5015530;28;20551;-82
2021/07/04 11:51:34;;;;;;;1.47;0.80;;;25.70;84.10;;;;;;5001356;28;20678;-80
2021/07/04 11:54:04;;;;;;;1.50;1.00;;;25.70;84.60;;;;;;5010257;28;20499;-81
2021/07/04 11:56:31;;;;;;;1.50;0.80;;;25.80;84.00;;;;;;4993939;28;21076;-83
2021/07/04 11:59:14;;;;;;;1.50;0.80;;;26.00;83.40;;;;;;5013798;28;20483;-80
2021/07/04 12:01:44;;;;;;;1.50;0.90;;;26.10;82.40;;;;;;5001800;28;20491;-83
2021/07/04 12:04:10;;;;;;;1.50;0.80;;;26.00;81.30;;;;;;5013145;28;20753;-79
2021/07/04 12:06:49;;;;;;;1.50;0.80;;;26.00;81.00;;;;;;4999434;28;20499;-81
2021/07/04 12:09:16;;;;;;;1.50;0.87;;;25.90;81.10;;;;;;5004975;28;20471;-79
2021/07/04 12:11:50;;;;;;;1.50;0.90;;;26.00;80.70;;;;;;4999555;28;20475;-79
2021/07/04 12:14:33;;;;;;;1.47;0.80;;;26.20;80.80;;;;;;5003942;28;20488;-78
2021/07/04 12:17:19;;;;;;;1.50;0.80;;;26.40;80.60;;;;;;5000438;28;20547;-78
2021/07/04 12:19:50;;;;;;;1.50;0.80;;;26.50;79.60;;;;;;5006068;28;20584;-80
2021/07/04 12:22:21;;;;;;;1.47;0.90;;;26.50;79.40;;;;;;5000928;28;20487;-79
2021/07/04 12:24:47;;;;;;;1.50;0.80;;;26.60;79.60;;;;;;4999909;28;20479;-80
2021/07/04 12:27:15;;;;;;;1.50;0.80;;;26.80;79.50;;;;;;5002696;28;20483;-79
2021/07/04 12:30:06;;;;;;;1.50;0.90;;;26.90;79.60;;;;;;5008922;28;21272;-80
2021/07/04 12:32:40;;;;;;;1.50;0.90;;;27.00;79.70;;;;;;5001750;28;20491;-79
2021/07/04 12:35:17;;;;;;;1.47;0.80;;;26.90;80.40;;;;;;5004296;28;20494;-77
2021/07/04 12:37:44;;;;;;;1.50;0.80;;;26.90;80.10;;;;;;5007221;28;20946;-80
2021/07/04 12:40:13;;;;;;;1.47;0.90;;;26.80;80.50;;;;;;5003553;28;21026;-79
2021/07/04 12:42:41;;;;;;;1.50;0.80;;;26.80;81.10;;;;;;5000933;28;20474;-79
2021/07/04 12:45:12;;;;;;;1.50;0.90;;;26.70;81.50;;;;;;5006759;28;20732;-80
2021/07/04 12:47:39;;;;;;;1.50;0.80;;;26.60;81.00;;;;;;5006392;28;20489;-79
2021/07/04 12:50:10;;;;;;;1.50;0.90;;;26.50;80.70;;;;;;5004034;28;20471;-79
2021/07/04 12:52:37;;;;;;;1.50;0.90;;;26.40;81.60;;;;;;5001132;28;20479;-78
2021/07/04 12:55:05;;;;;;;1.47;0.80;;;26.30;82.10;;;;;;5003641;28;21010;-79
2021/07/04 12:57:34;;;;;;;1.50;0.90;;;25.90;81.20;;;;;;5001138;28;20477;-78
2021/07/04 13:00:14;;;;;;;1.50;0.90;;;25.30;81.70;;;;;;5004996;28;20479;-78